sensor_id;sensor_type;location;lat;lon;timestamp;P1;durP1;ratioP1;P2;durP2;ratioP2
65822;SDS011;52585;47.566;19.056;2022-10-13T00:01:37;15.30;;;11.20;;
65822;SDS011;52585;47.566;19.056;2022-10-13T00:04:02;13.50;;;9.90;;
65822;SDS011;52585;47.566;19.056;2022-10-13T00:06:28;17.40;;;10.30;;
65822;SDS011;52585;47.566;19.056;2022-10-13T00:08:57;12.80;;;9.90;;
65822;SDS011;52585;47.566;19.056;2022-10-13T00:11:26;15.00;;;11.20;;
65822;SDS011;52585;47.566;19.056;2022-10-13T00:13:58;15.10;;;10.20;;
65822;SDS011;52585;47.566;19.056;2022-10-13T00:16:26;12.90;;;9.90;;
65822;SDS011;52585;47.566;19.056;2022-10-13T00:18:54;11.70;;;10.20;;
65822;SDS011;52585;47.566;19.056;2022-10-13T00:21:23;14.10;;;10.80;;
65822;SDS011;52585;47.566;19.056;2022-10-13T00:23:51;13.10;;;10.90;;
65822;SDS011;52585;47.566;19.056;2022-10-13T00:26:19;13.40;;;11.20;;
65822;SDS011;52585;47.566;19.056;2022-10-13T00:28:49;15.90;;;11.80;;
65822;SDS011;52585;47.566;19.056;2022-10-13T00:31:16;13.60;;;11.30;;
65822;SDS011;52585;47.566;19.056;2022-10-13T00:33:54;13.10;;;10.90;;
65822;SDS011;52585;47.566;19.056;2022-10-13T00:36:22;15.60;;;9.90;;
65822;SDS011;52585;47.566;19.056;2022-10-13T00:38:49;17.30;;;10.70;;
65822;SDS011;52585;47.566;19.056;2022-10-13T00:41:16;15.40;;;10.60;;
65822;SDS011;52585;47.566;19.056;2022-10-13T00:43:49;15.10;;;10.60;;
65822;SDS011;52585;47.566;19.056;2022-10-13T00:46:16;15.50;;;10.60;;
65822;SDS011;52585;47.566;19.056;2022-10-13T00:48:45;12.20;;;9.50;;
65822;SDS011;52585;47.566;19.056;2022-10-13T00:51:17;10.80;;;9.40;;
65822;SDS011;52585;47.566;19.056;2022-10-13T00:53:48;14.30;;;10.30;;
65822;SDS011;52585;47.566;19.056;2022-10-13T00:56:17;20.60;;;10.90;;
65822;SDS011;52585;47.566;19.056;2022-10-13T00:58:46;13.70;;;10.90;;
65822;SDS011;52585;47.566;19.056;2022-10-13T01:01:13;15.70;;;10.70;;
65822;SDS011;52585;47.566;19.056;2022-10-13T01:03:39;17.00;;;10.80;;
65822;SDS011;52585;47.566;19.056;2022-10-13T01:06:05;15.00;;;10.80;;
65822;SDS011;52585;47.566;19.056;2022-10-13T01:08:33;12.90;;;9.50;;
65822;SDS011;52585;47.566;19.056;2022-10-13T01:11:24;17.10;;;9.50;;
65822;SDS011;52585;47.566;19.056;2022-10-13T01:32:15;12.90;;;9.40;;
65822;SDS011;52585;47.566;19.056;2022-10-13T01:35:52;15.80;;;10.40;;
65822;SDS011;52585;47.566;19.056;2022-10-13T01:41:21;14.30;;;9.90;;
65822;SDS011;52585;47.566;19.056;2022-10-13T01:44:20;12.50;;;8.90;;
65822;SDS011;52585;47.566;19.056;2022-10-13T01:46:51;11.70;;;9.70;;
65822;SDS011;52585;47.566;19.056;2022-10-13T01:49:21;14.50;;;9.40;;
65822;SDS011;52585;47.566;19.056;2022-10-13T01:51:53;13.40;;;10.00;;
65822;SDS011;52585;47.566;19.056;2022-10-13T01:54:23;11.20;;;9.50;;
65822;SDS011;52585;47.566;19.056;2022-10-13T01:56:53;13.60;;;9.90;;
65822;SDS011;52585;47.566;19.056;2022-10-13T01:59:22;11.90;;;9.40;;
65822;SDS011;52585;47.566;19.056;2022-10-13T02:02:11;12.20;;;9.20;;
65822;SDS011;52585;47.566;19.056;2022-10-13T02:05:16;14.00;;;9.90;;
65822;SDS011;52585;47.566;19.056;2022-10-13T02:10:57;18.10;;;10.00;;
65822;SDS011;52585;47.566;19.056;2022-10-13T02:13:35;11.30;;;10.10;;
65822;SDS011;52585;47.566;19.056;2022-10-13T02:16:02;12.10;;;10.00;;
65822;SDS011;52585;47.566;19.056;2022-10-13T02:18:33;13.00;;;9.80;;
65822;SDS011;52585;47.566;19.056;2022-10-13T02:21:03;12.60;;;9.30;;
65822;SDS011;52585;47.566;19.056;2022-10-13T02:23:29;17.20;;;10.10;;
65822;SDS011;52585;47.566;19.056;2022-10-13T02:25:58;12.80;;;9.60;;
65822;SDS011;52585;47.566;19.056;2022-10-13T02:28:24;14.20;;;10.00;;
65822;SDS011;52585;47.566;19.056;2022-10-13T02:30:52;14.00;;;9.00;;
65822;SDS011;52585;47.566;19.056;2022-10-13T02:33:18;13.00;;;9.70;;
65822;SDS011;52585;47.566;19.056;2022-10-13T02:35:43;12.50;;;9.90;;
65822;SDS011;52585;47.566;19.056;2022-10-13T02:38:09;16.40;;;10.10;;
65822;SDS011;52585;47.566;19.056;2022-10-13T02:40:36;13.50;;;10.20;;
65822;SDS011;52585;47.566;19.056;2022-10-13T02:43:04;14.80;;;10.50;;
65822;SDS011;52585;47.566;19.056;2022-10-13T02:45:31;13.80;;;10.20;;
65822;SDS011;52585;47.566;19.056;2022-10-13T02:47:57;12.40;;;10.00;;
65822;SDS011;52585;47.566;19.056;2022-10-13T02:50:23;13.50;;;10.40;;
65822;SDS011;52585;47.566;19.056;2022-10-13T02:52:49;11.60;;;9.40;;
65822;SDS011;52585;47.566;19.056;2022-10-13T02:55:15;15.80;;;9.60;;
65822;SDS011;52585;47.566;19.056;2022-10-13T02:57:41;11.70;;;9.40;;
65822;SDS011;52585;47.566;19.056;2022-10-13T03:00:07;14.50;;;10.20;;
65822;SDS011;52585;47.566;19.056;2022-10-13T03:02:33;12.30;;;9.30;;
65822;SDS011;52585;47.566;19.056;2022-10-13T03:04:59;13.30;;;10.10;;
65822;SDS011;52585;47.566;19.056;2022-10-13T03:07:25;18.80;;;10.20;;
65822;SDS011;52585;47.566;19.056;2022-10-13T03:09:51;12.00;;;9.80;;
65822;SDS011;52585;47.566;19.056;2022-10-13T03:12:18;13.70;;;11.30;;
65822;SDS011;52585;47.566;19.056;2022-10-13T03:14:44;15.70;;;10.10;;
65822;SDS011;52585;47.566;19.056;2022-10-13T03:17:10;13.90;;;10.30;;
65822;SDS011;52585;47.566;19.056;2022-10-13T03:19:36;13.00;;;10.80;;
65822;SDS011;52585;47.566;19.056;2022-10-13T03:22:02;18.30;;;10.40;;
65822;SDS011;52585;47.566;19.056;2022-10-13T03:24:28;15.00;;;11.00;;
65822;SDS011;52585;47.566;19.056;2022-10-13T03:26:54;16.90;;;11.30;;
65822;SDS011;52585;47.566;19.056;2022-10-13T03:29:21;15.70;;;9.70;;
65822;SDS011;52585;47.566;19.056;2022-10-13T03:31:48;15.10;;;10.90;;
65822;SDS011;52585;47.566;19.056;2022-10-13T03:34:16;15.00;;;11.20;;
65822;SDS011;52585;47.566;19.056;2022-10-13T03:36:44;13.10;;;10.00;;
65822;SDS011;52585;47.566;19.056;2022-10-13T03:39:11;13.80;;;9.70;;
65822;SDS011;52585;47.566;19.056;2022-10-13T03:41:37;15.00;;;8.80;;
65822;SDS011;52585;47.566;19.056;2022-10-13T03:44:03;11.40;;;9.00;;
65822;SDS011;52585;47.566;19.056;2022-10-13T03:46:30;10.10;;;9.10;;
65822;SDS011;52585;47.566;19.056;2022-10-13T03:48:56;13.90;;;8.50;;
65822;SDS011;52585;47.566;19.056;2022-10-13T03:51:22;11.10;;;8.20;;
65822;SDS011;52585;47.566;19.056;2022-10-13T03:53:49;9.50;;;8.30;;
65822;SDS011;52585;47.566;19.056;2022-10-13T03:56:24;14.00;;;9.00;;
65822;SDS011;52585;47.566;19.056;2022-10-13T03:58:53;11.90;;;8.10;;
65822;SDS011;52585;47.566;19.056;2022-10-13T04:01:22;14.60;;;9.00;;
65822;SDS011;52585;47.566;19.056;2022-10-13T04:03:52;11.50;;;8.90;;
65822;SDS011;52585;47.566;19.056;2022-10-13T04:06:20;10.00;;;8.70;;
65822;SDS011;52585;47.566;19.056;2022-10-13T04:08:47;12.00;;;9.70;;
65822;SDS011;52585;47.566;19.056;2022-10-13T04:11:14;12.90;;;9.70;;
65822;SDS011;52585;47.566;19.056;2022-10-13T04:13:43;13.30;;;10.00;;
65822;SDS011;52585;47.566;19.056;2022-10-13T04:16:19;17.40;;;10.10;;
65822;SDS011;52585;47.566;19.056;2022-10-13T04:18:54;14.40;;;10.00;;
65822;SDS011;52585;47.566;19.056;2022-10-13T04:21:23;12.30;;;9.50;;
65822;SDS011;52585;47.566;19.056;2022-10-13T04:23:49;14.50;;;9.50;;
65822;SDS011;52585;47.566;19.056;2022-10-13T04:26:18;13.00;;;9.40;;
65822;SDS011;52585;47.566;19.056;2022-10-13T04:28:49;14.60;;;10.50;;
65822;SDS011;52585;47.566;19.056;2022-10-13T04:31:16;14.60;;;10.10;;
65822;SDS011;52585;47.566;19.056;2022-10-13T04:33:45;13.00;;;9.90;;
65822;SDS011;52585;47.566;19.056;2022-10-13T04:36:12;12.60;;;9.90;;
65822;SDS011;52585;47.566;19.056;2022-10-13T04:38:40;12.10;;;9.70;;
65822;SDS011;52585;47.566;19.056;2022-10-13T04:41:07;13.50;;;9.80;;
65822;SDS011;52585;47.566;19.056;2022-10-13T04:43:34;12.60;;;9.30;;
65822;SDS011;52585;47.566;19.056;2022-10-13T04:46:14;12.20;;;9.90;;
65822;SDS011;52585;47.566;19.056;2022-10-13T04:48:43;12.00;;;9.10;;
65822;SDS011;52585;47.566;19.056;2022-10-13T04:51:15;11.00;;;8.20;;
65822;SDS011;52585;47.566;19.056;2022-10-13T04:53:43;13.40;;;8.40;;
65822;SDS011;52585;47.566;19.056;2022-10-13T04:56:13;11.80;;;9.60;;
65822;SDS011;52585;47.566;19.056;2022-10-13T04:58:42;12.10;;;9.30;;
65822;SDS011;52585;47.566;19.056;2022-10-13T05:01:19;11.80;;;9.20;;
65822;SDS011;52585;47.566;19.056;2022-10-13T05:03:50;12.60;;;9.80;;
65822;SDS011;52585;47.566;19.056;2022-10-13T05:06:23;11.90;;;9.70;;
65822;SDS011;52585;47.566;19.056;2022-10-13T05:08:56;13.80;;;10.90;;
65822;SDS011;52585;47.566;19.056;2022-10-13T05:11:23;15.20;;;9.50;;
65822;SDS011;52585;47.566;19.056;2022-10-13T05:13:52;11.80;;;8.90;;
65822;SDS011;52585;47.566;19.056;2022-10-13T05:16:19;12.10;;;9.90;;
65822;SDS011;52585;47.566;19.056;2022-10-13T05:18:47;12.70;;;9.80;;
65822;SDS011;52585;47.566;19.056;2022-10-13T05:21:17;12.00;;;9.30;;
65822;SDS011;52585;47.566;19.056;2022-10-13T05:23:47;11.20;;;9.10;;
65822;SDS011;52585;47.566;19.056;2022-10-13T05:26:15;13.80;;;9.90;;
65822;SDS011;52585;47.566;19.056;2022-10-13T05:28:43;11.80;;;10.50;;
65822;SDS011;52585;47.566;19.056;2022-10-13T05:31:17;13.40;;;9.90;;
65822;SDS011;52585;47.566;19.056;2022-10-13T05:33:45;13.40;;;10.60;;
65822;SDS011;52585;47.566;19.056;2022-10-13T05:36:16;14.80;;;10.60;;
65822;SDS011;52585;47.566;19.056;2022-10-13T05:38:54;15.90;;;11.40;;
65822;SDS011;52585;47.566;19.056;2022-10-13T05:41:24;13.00;;;10.40;;
65822;SDS011;52585;47.566;19.056;2022-10-13T05:44:02;15.20;;;10.60;;
65822;SDS011;52585;47.566;19.056;2022-10-13T05:46:31;12.70;;;9.90;;
65822;SDS011;52585;47.566;19.056;2022-10-13T05:48:57;12.10;;;10.00;;
65822;SDS011;52585;47.566;19.056;2022-10-13T05:51:30;14.20;;;9.70;;
65822;SDS011;52585;47.566;19.056;2022-10-13T05:54:11;14.10;;;10.00;;
65822;SDS011;52585;47.566;19.056;2022-10-13T05:57:05;12.80;;;8.70;;
65822;SDS011;52585;47.566;19.056;2022-10-13T05:59:44;14.10;;;8.90;;
65822;SDS011;52585;47.566;19.056;2022-10-13T06:02:15;11.90;;;8.90;;
65822;SDS011;52585;47.566;19.056;2022-10-13T06:04:48;10.80;;;8.70;;
65822;SDS011;52585;47.566;19.056;2022-10-13T06:07:16;12.00;;;8.50;;
65822;SDS011;52585;47.566;19.056;2022-10-13T06:09:42;11.90;;;9.30;;
65822;SDS011;52585;47.566;19.056;2022-10-13T06:12:09;11.90;;;9.20;;
65822;SDS011;52585;47.566;19.056;2022-10-13T06:14:35;13.00;;;9.70;;
65822;SDS011;52585;47.566;19.056;2022-10-13T06:17:00;11.60;;;8.80;;
65822;SDS011;52585;47.566;19.056;2022-10-13T06:19:27;14.50;;;9.20;;
65822;SDS011;52585;47.566;19.056;2022-10-13T06:21:53;12.30;;;9.40;;
65822;SDS011;52585;47.566;19.056;2022-10-13T06:24:19;10.90;;;9.00;;
65822;SDS011;52585;47.566;19.056;2022-10-13T06:26:44;11.90;;;9.00;;
65822;SDS011;52585;47.566;19.056;2022-10-13T06:29:10;11.50;;;8.90;;
65822;SDS011;52585;47.566;19.056;2022-10-13T06:31:36;10.00;;;8.80;;
65822;SDS011;52585;47.566;19.056;2022-10-13T06:34:02;12.30;;;9.20;;
65822;SDS011;52585;47.566;19.056;2022-10-13T06:36:28;12.20;;;8.70;;
65822;SDS011;52585;47.566;19.056;2022-10-13T06:38:53;13.20;;;9.60;;
65822;SDS011;52585;47.566;19.056;2022-10-13T06:41:19;10.40;;;8.90;;
65822;SDS011;52585;47.566;19.056;2022-10-13T06:43:45;13.00;;;9.10;;
65822;SDS011;52585;47.566;19.056;2022-10-13T06:46:11;11.40;;;8.80;;
65822;SDS011;52585;47.566;19.056;2022-10-13T06:48:37;10.50;;;9.10;;
65822;SDS011;52585;47.566;19.056;2022-10-13T06:51:06;12.80;;;10.20;;
65822;SDS011;52585;47.566;19.056;2022-10-13T06:53:35;13.20;;;9.90;;
65822;SDS011;52585;47.566;19.056;2022-10-13T06:56:04;11.50;;;9.60;;
65822;SDS011;52585;47.566;19.056;2022-10-13T06:58:32;14.70;;;10.80;;
65822;SDS011;52585;47.566;19.056;2022-10-13T07:01:05;13.00;;;10.40;;
65822;SDS011;52585;47.566;19.056;2022-10-13T07:03:31;17.90;;;11.90;;
65822;SDS011;52585;47.566;19.056;2022-10-13T07:06:02;12.90;;;10.20;;
65822;SDS011;52585;47.566;19.056;2022-10-13T07:08:30;14.50;;;11.30;;
65822;SDS011;52585;47.566;19.056;2022-10-13T07:10:56;14.50;;;10.20;;
65822;SDS011;52585;47.566;19.056;2022-10-13T07:13:23;11.30;;;10.10;;
65822;SDS011;52585;47.566;19.056;2022-10-13T07:15:48;15.40;;;11.30;;
65822;SDS011;52585;47.566;19.056;2022-10-13T07:18:15;12.50;;;10.20;;
65822;SDS011;52585;47.566;19.056;2022-10-13T07:20:41;12.10;;;9.50;;
65822;SDS011;52585;47.566;19.056;2022-10-13T07:23:07;11.30;;;10.00;;
65822;SDS011;52585;47.566;19.056;2022-10-13T07:25:33;10.90;;;9.50;;
65822;SDS011;52585;47.566;19.056;2022-10-13T07:27:58;13.30;;;9.30;;
65822;SDS011;52585;47.566;19.056;2022-10-13T07:30:24;12.10;;;9.50;;
65822;SDS011;52585;47.566;19.056;2022-10-13T07:32:51;11.30;;;9.30;;
65822;SDS011;52585;47.566;19.056;2022-10-13T07:35:17;11.90;;;9.00;;
65822;SDS011;52585;47.566;19.056;2022-10-13T07:37:44;11.80;;;9.40;;
65822;SDS011;52585;47.566;19.056;2022-10-13T07:40:10;11.20;;;9.70;;
65822;SDS011;52585;47.566;19.056;2022-10-13T07:42:36;12.30;;;10.70;;
65822;SDS011;52585;47.566;19.056;2022-10-13T07:45:02;13.30;;;10.80;;
65822;SDS011;52585;47.566;19.056;2022-10-13T07:47:29;13.10;;;11.10;;
65822;SDS011;52585;47.566;19.056;2022-10-13T07:49:54;13.10;;;10.70;;
65822;SDS011;52585;47.566;19.056;2022-10-13T07:52:21;14.90;;;11.40;;
65822;SDS011;52585;47.566;19.056;2022-10-13T07:54:47;14.10;;;11.00;;
65822;SDS011;52585;47.566;19.056;2022-10-13T07:57:15;14.00;;;11.00;;
65822;SDS011;52585;47.566;19.056;2022-10-13T07:59:41;12.00;;;10.20;;
65822;SDS011;52585;47.566;19.056;2022-10-13T08:02:08;14.40;;;11.30;;
65822;SDS011;52585;47.566;19.056;2022-10-13T08:04:35;13.20;;;9.80;;
65822;SDS011;52585;47.566;19.056;2022-10-13T08:07:03;15.60;;;11.20;;
65822;SDS011;52585;47.566;19.056;2022-10-13T08:09:30;12.70;;;11.20;;
65822;SDS011;52585;47.566;19.056;2022-10-13T08:11:55;16.00;;;11.60;;
65822;SDS011;52585;47.566;19.056;2022-10-13T08:14:22;17.20;;;12.40;;
65822;SDS011;52585;47.566;19.056;2022-10-13T08:16:48;14.70;;;11.90;;
65822;SDS011;52585;47.566;19.056;2022-10-13T08:19:16;15.50;;;11.70;;
65822;SDS011;52585;47.566;19.056;2022-10-13T08:21:45;15.30;;;11.50;;
65822;SDS011;52585;47.566;19.056;2022-10-13T08:24:15;15.70;;;13.10;;
65822;SDS011;52585;47.566;19.056;2022-10-13T08:27:08;15.20;;;12.40;;
65822;SDS011;52585;47.566;19.056;2022-10-13T08:29:43;17.80;;;11.80;;
65822;SDS011;52585;47.566;19.056;2022-10-13T08:32:09;16.10;;;12.90;;
65822;SDS011;52585;47.566;19.056;2022-10-13T08:34:35;14.10;;;12.20;;
65822;SDS011;52585;47.566;19.056;2022-10-13T08:37:03;15.30;;;11.70;;
65822;SDS011;52585;47.566;19.056;2022-10-13T08:39:29;16.10;;;12.10;;
65822;SDS011;52585;47.566;19.056;2022-10-13T08:41:57;16.80;;;11.60;;
65822;SDS011;52585;47.566;19.056;2022-10-13T08:44:39;15.00;;;12.30;;
65822;SDS011;52585;47.566;19.056;2022-10-13T08:50:18;18.60;;;11.90;;
65822;SDS011;52585;47.566;19.056;2022-10-13T08:52:54;15.10;;;11.50;;
65822;SDS011;52585;47.566;19.056;2022-10-13T08:58:01;14.40;;;11.50;;
65822;SDS011;52585;47.566;19.056;2022-10-13T09:00:36;19.90;;;12.30;;
65822;SDS011;52585;47.566;19.056;2022-10-13T09:06:09;14.90;;;10.90;;
65822;SDS011;52585;47.566;19.056;2022-10-13T09:09:02;15.90;;;11.80;;
65822;SDS011;52585;47.566;19.056;2022-10-13T09:11:33;16.90;;;12.70;;
65822;SDS011;52585;47.566;19.056;2022-10-13T09:14:04;13.90;;;11.30;;
65822;SDS011;52585;47.566;19.056;2022-10-13T09:16:34;15.20;;;11.60;;
65822;SDS011;52585;47.566;19.056;2022-10-13T09:19:28;17.70;;;12.40;;
65822;SDS011;52585;47.566;19.056;2022-10-13T09:30:41;17.00;;;12.40;;
65822;SDS011;52585;47.566;19.056;2022-10-13T09:35:46;16.80;;;11.20;;
65822;SDS011;52585;47.566;19.056;2022-10-13T09:38:23;15.10;;;10.90;;
65822;SDS011;52585;47.566;19.056;2022-10-13T09:46:29;14.70;;;10.30;;
65822;SDS011;52585;47.566;19.056;2022-10-13T09:49:32;17.30;;;9.80;;
65822;SDS011;52585;47.566;19.056;2022-10-13T09:52:12;14.30;;;9.70;;
65822;SDS011;52585;47.566;19.056;2022-10-13T09:54:47;16.70;;;10.20;;
65822;SDS011;52585;47.566;19.056;2022-10-13T10:00:22;14.10;;;9.20;;
65822;SDS011;52585;47.566;19.056;2022-10-13T10:10:52;17.30;;;9.10;;
65822;SDS011;52585;47.566;19.056;2022-10-13T10:13:19;18.60;;;9.80;;
65822;SDS011;52585;47.566;19.056;2022-10-13T10:16:10;13.70;;;9.00;;
65822;SDS011;52585;47.566;19.056;2022-10-13T10:18:54;14.60;;;8.50;;
65822;SDS011;52585;47.566;19.056;2022-10-13T10:21:48;15.20;;;8.00;;
65822;SDS011;52585;47.566;19.056;2022-10-13T10:30:25;12.40;;;8.20;;
65822;SDS011;52585;47.566;19.056;2022-10-13T10:35:54;13.70;;;8.00;;
65822;SDS011;52585;47.566;19.056;2022-10-13T10:45:11;12.60;;;7.90;;
65822;SDS011;52585;47.566;19.056;2022-10-13T10:47:41;15.40;;;8.00;;
65822;SDS011;52585;47.566;19.056;2022-10-13T10:50:18;12.40;;;8.10;;
65822;SDS011;52585;47.566;19.056;2022-10-13T10:55:53;10.50;;;7.20;;
65822;SDS011;52585;47.566;19.056;2022-10-13T10:58:34;11.90;;;7.10;;
65822;SDS011;52585;47.566;19.056;2022-10-13T11:07:02;12.00;;;6.80;;
65822;SDS011;52585;47.566;19.056;2022-10-13T11:17:52;10.10;;;7.20;;
65822;SDS011;52585;47.566;19.056;2022-10-13T11:30:56;14.10;;;6.90;;
65822;SDS011;52585;47.566;19.056;2022-10-13T11:36:45;9.80;;;7.10;;
65822;SDS011;52585;47.566;19.056;2022-10-13T11:45:02;13.50;;;6.80;;
65822;SDS011;52585;47.566;19.056;2022-10-13T11:51:31;8.20;;;5.90;;
65822;SDS011;52585;47.566;19.056;2022-10-13T11:54:22;8.80;;;5.80;;
65822;SDS011;52585;47.566;19.056;2022-10-13T11:57:19;10.90;;;6.40;;
65822;SDS011;52585;47.566;19.056;2022-10-13T11:59:51;13.60;;;6.90;;
65822;SDS011;52585;47.566;19.056;2022-10-13T12:02:22;7.40;;;6.00;;
65822;SDS011;52585;47.566;19.056;2022-10-13T12:10:35;8.30;;;6.40;;
65822;SDS011;52585;47.566;19.056;2022-10-13T12:13:04;9.60;;;6.20;;
65822;SDS011;52585;47.566;19.056;2022-10-13T12:18:39;9.10;;;6.40;;
65822;SDS011;52585;47.566;19.056;2022-10-13T12:21:19;9.80;;;6.80;;
65822;SDS011;52585;47.566;19.056;2022-10-13T12:23:49;7.60;;;6.00;;
65822;SDS011;52585;47.566;19.056;2022-10-13T12:26:22;15.60;;;6.40;;
65822;SDS011;52585;47.566;19.056;2022-10-13T12:28:56;9.30;;;6.80;;
65822;SDS011;52585;47.566;19.056;2022-10-13T12:31:28;13.50;;;6.70;;
65822;SDS011;52585;47.566;19.056;2022-10-13T12:34:02;10.20;;;7.20;;
65822;SDS011;52585;47.566;19.056;2022-10-13T12:36:32;9.90;;;5.80;;
65822;SDS011;52585;47.566;19.056;2022-10-13T12:39:14;16.00;;;6.30;;
65822;SDS011;52585;47.566;19.056;2022-10-13T12:41:44;10.90;;;6.50;;
65822;SDS011;52585;47.566;19.056;2022-10-13T12:44:24;7.40;;;6.10;;
65822;SDS011;52585;47.566;19.056;2022-10-13T12:46:54;9.40;;;6.80;;
65822;SDS011;52585;47.566;19.056;2022-10-13T12:52:12;11.90;;;6.50;;
65822;SDS011;52585;47.566;19.056;2022-10-13T12:54:54;11.20;;;6.70;;
65822;SDS011;52585;47.566;19.056;2022-10-13T12:57:36;11.30;;;6.30;;
65822;SDS011;52585;47.566;19.056;2022-10-13T13:02:51;10.10;;;6.90;;
65822;SDS011;52585;47.566;19.056;2022-10-13T13:05:41;14.00;;;7.20;;
65822;SDS011;52585;47.566;19.056;2022-10-13T13:08:29;13.00;;;6.80;;
65822;SDS011;52585;47.566;19.056;2022-10-13T13:11:04;10.20;;;6.80;;
65822;SDS011;52585;47.566;19.056;2022-10-13T13:13:33;11.10;;;7.30;;
65822;SDS011;52585;47.566;19.056;2022-10-13T13:16:14;11.30;;;6.90;;
65822;SDS011;52585;47.566;19.056;2022-10-13T13:18:46;8.90;;;5.80;;
65822;SDS011;52585;47.566;19.056;2022-10-13T13:21:15;8.70;;;6.80;;
65822;SDS011;52585;47.566;19.056;2022-10-13T13:23:45;13.50;;;7.30;;
65822;SDS011;52585;47.566;19.056;2022-10-13T13:28:49;12.30;;;6.80;;
65822;SDS011;52585;47.566;19.056;2022-10-13T13:31:18;10.60;;;7.00;;
65822;SDS011;52585;47.566;19.056;2022-10-13T13:33:46;10.20;;;6.10;;
65822;SDS011;52585;47.566;19.056;2022-10-13T13:36:16;9.20;;;7.20;;
65822;SDS011;52585;47.566;19.056;2022-10-13T13:38:48;10.30;;;6.80;;
65822;SDS011;52585;47.566;19.056;2022-10-13T13:41:15;16.60;;;6.50;;
65822;SDS011;52585;47.566;19.056;2022-10-13T13:43:42;9.80;;;6.20;;
65822;SDS011;52585;47.566;19.056;2022-10-13T13:46:22;8.30;;;6.40;;
65822;SDS011;52585;47.566;19.056;2022-10-13T13:48:50;9.70;;;6.80;;
65822;SDS011;52585;47.566;19.056;2022-10-13T13:51:16;10.80;;;6.70;;
65822;SDS011;52585;47.566;19.056;2022-10-13T13:53:42;9.60;;;6.80;;
65822;SDS011;52585;47.566;19.056;2022-10-13T13:56:13;9.10;;;6.80;;
65822;SDS011;52585;47.566;19.056;2022-10-13T13:58:40;11.70;;;6.60;;
65822;SDS011;52585;47.566;19.056;2022-10-13T14:01:07;9.90;;;6.10;;
65822;SDS011;52585;47.566;19.056;2022-10-13T14:03:33;10.20;;;6.50;;
65822;SDS011;52585;47.566;19.056;2022-10-13T14:05:59;8.50;;;5.90;;
65822;SDS011;52585;47.566;19.056;2022-10-13T14:08:28;10.40;;;6.70;;
65822;SDS011;52585;47.566;19.056;2022-10-13T14:10:55;13.30;;;7.00;;
65822;SDS011;52585;47.566;19.056;2022-10-13T14:13:21;9.30;;;6.40;;
65822;SDS011;52585;47.566;19.056;2022-10-13T14:16:00;10.90;;;6.80;;
65822;SDS011;52585;47.566;19.056;2022-10-13T14:18:29;13.40;;;7.00;;
65822;SDS011;52585;47.566;19.056;2022-10-13T14:20:55;11.70;;;7.30;;
65822;SDS011;52585;47.566;19.056;2022-10-13T14:23:21;13.30;;;6.50;;
65822;SDS011;52585;47.566;19.056;2022-10-13T14:25:47;13.70;;;6.90;;
65822;SDS011;52585;47.566;19.056;2022-10-13T14:28:13;12.00;;;6.60;;
65822;SDS011;52585;47.566;19.056;2022-10-13T14:30:39;9.50;;;6.60;;
65822;SDS011;52585;47.566;19.056;2022-10-13T14:33:07;13.50;;;6.70;;
65822;SDS011;52585;47.566;19.056;2022-10-13T14:35:34;16.10;;;6.90;;
65822;SDS011;52585;47.566;19.056;2022-10-13T14:38:00;9.70;;;6.70;;
65822;SDS011;52585;47.566;19.056;2022-10-13T14:40:26;9.70;;;6.10;;
65822;SDS011;52585;47.566;19.056;2022-10-13T14:42:51;10.60;;;5.90;;
65822;SDS011;52585;47.566;19.056;2022-10-13T14:45:17;10.50;;;6.70;;
65822;SDS011;52585;47.566;19.056;2022-10-13T14:47:42;9.20;;;6.70;;
65822;SDS011;52585;47.566;19.056;2022-10-13T14:50:10;8.10;;;6.50;;
65822;SDS011;52585;47.566;19.056;2022-10-13T14:52:36;11.10;;;6.50;;
65822;SDS011;52585;47.566;19.056;2022-10-13T14:55:02;13.00;;;6.50;;
65822;SDS011;52585;47.566;19.056;2022-10-13T14:57:29;12.40;;;6.10;;
65822;SDS011;52585;47.566;19.056;2022-10-13T14:59:58;9.10;;;6.70;;
65822;SDS011;52585;47.566;19.056;2022-10-13T15:02:24;11.00;;;6.40;;
65822;SDS011;52585;47.566;19.056;2022-10-13T15:04:50;8.30;;;6.70;;
65822;SDS011;52585;47.566;19.056;2022-10-13T15:07:16;10.20;;;6.20;;
65822;SDS011;52585;47.566;19.056;2022-10-13T15:09:42;10.60;;;6.50;;
65822;SDS011;52585;47.566;19.056;2022-10-13T15:12:08;13.80;;;6.90;;
65822;SDS011;52585;47.566;19.056;2022-10-13T15:14:34;9.70;;;6.40;;
65822;SDS011;52585;47.566;19.056;2022-10-13T15:17:01;11.00;;;6.40;;
65822;SDS011;52585;47.566;19.056;2022-10-13T15:19:28;10.60;;;6.10;;
65822;SDS011;52585;47.566;19.056;2022-10-13T15:21:54;17.30;;;6.80;;
65822;SDS011;52585;47.566;19.056;2022-10-13T15:24:22;10.50;;;5.90;;
65822;SDS011;52585;47.566;19.056;2022-10-13T15:26:48;8.20;;;5.40;;
65822;SDS011;52585;47.566;19.056;2022-10-13T15:29:15;7.50;;;5.50;;
65822;SDS011;52585;47.566;19.056;2022-10-13T15:31:41;8.40;;;5.80;;
65822;SDS011;52585;47.566;19.056;2022-10-13T15:34:06;6.60;;;4.80;;
65822;SDS011;52585;47.566;19.056;2022-10-13T15:36:33;7.40;;;5.80;;
65822;SDS011;52585;47.566;19.056;2022-10-13T15:38:59;9.60;;;6.00;;
65822;SDS011;52585;47.566;19.056;2022-10-13T15:41:25;11.60;;;6.90;;
65822;SDS011;52585;47.566;19.056;2022-10-13T15:43:52;9.60;;;6.00;;
65822;SDS011;52585;47.566;19.056;2022-10-13T15:46:18;11.30;;;6.10;;
65822;SDS011;52585;47.566;19.056;2022-10-13T15:48:52;10.60;;;6.40;;
65822;SDS011;52585;47.566;19.056;2022-10-13T15:51:21;18.90;;;7.10;;
65822;SDS011;52585;47.566;19.056;2022-10-13T15:53:48;13.50;;;7.20;;
65822;SDS011;52585;47.566;19.056;2022-10-13T15:56:15;24.20;;;8.10;;
65822;SDS011;52585;47.566;19.056;2022-10-13T15:58:41;18.60;;;7.50;;
65822;SDS011;52585;47.566;19.056;2022-10-13T16:01:11;18.80;;;8.20;;
65822;SDS011;52585;47.566;19.056;2022-10-13T16:03:38;20.20;;;8.00;;
65822;SDS011;52585;47.566;19.056;2022-10-13T16:06:07;25.90;;;8.90;;
65822;SDS011;52585;47.566;19.056;2022-10-13T16:08:38;23.40;;;8.60;;
65822;SDS011;52585;47.566;19.056;2022-10-13T16:11:10;25.00;;;8.40;;
65822;SDS011;52585;47.566;19.056;2022-10-13T16:13:38;21.40;;;8.00;;
65822;SDS011;52585;47.566;19.056;2022-10-13T16:16:06;13.80;;;7.60;;
65822;SDS011;52585;47.566;19.056;2022-10-13T16:18:35;19.70;;;7.90;;
65822;SDS011;52585;47.566;19.056;2022-10-13T16:21:15;18.70;;;8.00;;
65822;SDS011;52585;47.566;19.056;2022-10-13T16:23:43;26.60;;;8.50;;
65822;SDS011;52585;47.566;19.056;2022-10-13T16:26:10;16.90;;;8.10;;
65822;SDS011;52585;47.566;19.056;2022-10-13T16:28:36;20.40;;;8.50;;
65822;SDS011;52585;47.566;19.056;2022-10-13T16:31:08;18.40;;;8.20;;
65822;SDS011;52585;47.566;19.056;2022-10-13T16:33:42;27.40;;;8.80;;
65822;SDS011;52585;47.566;19.056;2022-10-13T16:36:12;16.60;;;8.30;;
65822;SDS011;52585;47.566;19.056;2022-10-13T16:38:41;16.40;;;8.80;;
65822;SDS011;52585;47.566;19.056;2022-10-13T16:41:14;15.90;;;7.80;;
65822;SDS011;52585;47.566;19.056;2022-10-13T16:43:44;17.90;;;8.70;;
65822;SDS011;52585;47.566;19.056;2022-10-13T16:46:14;18.70;;;8.50;;
65822;SDS011;52585;47.566;19.056;2022-10-13T16:48:44;16.60;;;9.20;;
65822;SDS011;52585;47.566;19.056;2022-10-13T16:51:13;24.10;;;8.20;;